หน้าหลัก
METAR-TAF:

METAR-TAF

ท่าอากาศยาน :

Westerland, เยอรมนี

ละติจูด: 54-55N, ลองจิจูด: 008-21E, ความสูง: 16 ม.

การสังเกตสภาพอากาศปัจจุบัน

รายงานได้ทำขึ้นเมื่อ 18 นาทีที่แล้ว ณ เวลา 23:50 UTC
ลม 5 นอตจากตะวันออกเฉียงใต้
อุณหภูมิ 17°C
ความชื้น 94%
ความกดอากาศ 1017 hPa
ทัศนวิสัย 10 กม. หรือมากกว่า

METAR: EDXW 192350Z AUTO 14005KT 9999 // NCD 17/16 Q1017

เวลา: 02:08 (00:08 UTC)

การพยากรณ์

รายงานได้ทำขึ้นเมื่อ 7 ชั่วโมงและ 8 นาทีที่แล้ว ณ เวลา 17:00 UTC
การพยากรณ์มีผลตั้งแต่วันที่ 19 ณ เวลา 18 UTC จนถึงวันที่ 19 ณ เวลา 21 UTC
ลม 4 นอตจากตะวันออก
ทัศนวิสัย 10 กม. หรือมากกว่า
ไม่มีเมฆต่ำกว่า 1,500 ม. และไม่มีเมฆคิวมูโลนิมบัส

TAF: EDXW 191700Z 1918/1921 09004KT CAVOK

สังเกตการณ์สภาพอากาศและพยากรณ์อากาศของสนามบินมากกว่า 4000 แห่ง (รายงาน METAR และ TAF).

สถานีที่ดูได้จะแสดงไว้ด้วยจุดสีเหลืองและสีแดงบนแผนที่.

เลื่อนเมาส์ไปเหนือจุดเพื่อดูชื่อสถานี.

แล้วคลิกเพื่อดูสังเกตการณ์และการพยากรณ์สภาพอากาศ.

ในการเปลี่ยนแผนที่: คลิกที่ปุ่มสีเขียวที่มีกากบาทสีดำเพื่อซูมเข้า; ที่ปุ่มสีเขียวที่มีขีดเพื่อซูมออก; หรือที่ลูกศรสีเขียวเพื่อไปยังแผนที่ที่อยู่ติดกัน.


METAR-TAF: